Time;durP1;ratioP1;P1;durP2;ratioP2;P2;SDS_P1;SDS_P2;PMS_P1;PMS_P2;Temp;Humidity;BMP_temperature;BMP_pressure;BME280_temperature;BME280_humidity;BME280_pressure;Samples;Min_cycle;Max_cycle;Signal;HPM_P1;HPM_P2
2021/01/17 00:00:29;;;;;;;16.80;7.90;;;21.50;26.70;;;;;;6096908;28;80627;-61
2021/01/17 00:03:30;;;;;;;15.07;7.82;;;21.50;26.50;;;;;;6098240;28;80741;-62
2021/01/17 00:06:30;;;;;;;15.43;8.32;;;21.50;26.60;;;;;;6102197;28;81073;-62
2021/01/17 00:09:31;;;;;;;17.20;8.50;;;21.50;26.70;;;;;;6102090;28;80507;-63
2021/01/17 00:12:31;;;;;;;15.38;7.53;;;21.40;26.80;;;;;;6100860;28;80743;-62
2021/01/17 00:15:32;;;;;;;15.02;8.00;;;21.40;26.70;;;;;;6079411;28;80570;-62
2021/01/17 00:18:32;;;;;;;15.95;7.38;;;21.40;26.80;;;;;;6102388;28;80549;-61
2021/01/17 00:21:33;;;;;;;14.30;7.63;;;21.40;26.70;;;;;;6088080;28;80655;-60
2021/01/17 00:24:33;;;;;;;16.55;8.55;;;21.40;26.70;;;;;;6106468;28;80545;-63
2021/01/17 00:27:34;;;;;;;15.82;7.72;;;21.40;26.60;;;;;;6105543;28;80278;-61
2021/01/17 00:30:35;;;;;;;14.40;7.70;;;21.40;26.70;;;;;;6096304;28;80894;-62
2021/01/17 00:33:35;;;;;;;15.55;8.23;;;21.40;26.60;;;;;;6105985;28;80305;-61
2021/01/17 00:36:36;;;;;;;15.98;8.55;;;21.40;26.60;;;;;;6104640;28;80833;-63
2021/01/17 00:39:36;;;;;;;15.18;7.55;;;21.40;26.70;;;;;;6073651;28;82938;-61
2021/01/17 00:42:37;;;;;;;15.00;8.05;;;21.40;26.60;;;;;;6103621;28;81948;-60
2021/01/17 00:45:37;;;;;;;14.63;7.88;;;21.40;26.60;;;;;;6099030;28;80242;-61
2021/01/17 00:48:39;;;;;;;16.40;8.80;;;21.40;26.70;;;;;;6092800;28;80611;-61
2021/01/17 00:51:41;;;;;;;15.65;7.88;;;21.30;26.60;;;;;;6104616;28;80667;-60
2021/01/17 00:54:42;;;;;;;16.48;8.20;;;21.30;26.80;;;;;;6094454;28;84218;-62
2021/01/17 00:57:42;;;;;;;14.30;7.43;;;21.30;26.90;;;;;;6101434;28;81363;-61
2021/01/17 01:00:45;;;;;;;14.88;7.50;;;21.40;27.10;;;;;;6091345;28;82747;-61
2021/01/17 01:03:54;;;;;;;16.60;7.35;;;21.30;26.80;;;;;;6101194;28;81083;-62
2021/01/17 01:06:55;;;;;;;14.73;7.57;;;21.30;26.90;;;;;;6098609;28;80833;-61
2021/01/17 01:09:56;;;;;;;14.50;7.53;;;21.30;26.90;;;;;;6100638;28;81804;-61
2021/01/17 01:12:56;;;;;;;13.77;7.15;;;21.30;26.90;;;;;;6076872;28;83861;-61
2021/01/17 01:15:57;;;;;;;16.58;7.90;;;21.30;27.10;;;;;;6101244;28;81163;-61
2021/01/17 01:18:57;;;;;;;14.88;7.65;;;21.30;27.00;;;;;;6106304;28;88078;-61
2021/01/17 01:21:58;;;;;;;13.65;7.07;;;21.30;27.10;;;;;;6103864;28;81359;-61
2021/01/17 01:24:58;;;;;;;18.88;8.05;;;21.30;27.10;;;;;;6086462;28;80704;-61
2021/01/17 01:27:59;;;;;;;15.55;7.28;;;21.30;27.10;;;;;;6095277;28;81296;-61
2021/01/17 01:30:59;;;;;;;16.83;7.50;;;21.30;27.10;;;;;;6104231;28;80872;-61
2021/01/17 01:34:00;;;;;;;14.27;7.05;;;21.30;27.20;;;;;;6106101;28;80524;-62
2021/01/17 01:37:00;;;;;;;15.98;7.20;;;21.30;27.10;;;;;;6102940;28;80808;-62
2021/01/17 01:40:01;;;;;;;13.15;7.15;;;21.30;27.10;;;;;;6101789;28;80843;-62
2021/01/17 01:43:01;;;;;;;11.68;6.53;;;21.20;27.10;;;;;;6084060;28;87307;-62
2021/01/17 01:46:02;;;;;;;12.07;6.25;;;21.20;27.10;;;;;;6100611;28;81563;-62
2021/01/17 01:49:02;;;;;;;10.02;5.57;;;21.20;27.00;;;;;;6100766;28;80772;-62
2021/01/17 01:52:03;;;;;;;13.68;6.53;;;21.20;27.20;;;;;;6103046;28;80792;-62
2021/01/17 01:55:03;;;;;;;13.07;6.03;;;21.20;27.00;;;;;;6093258;28;81068;-62
2021/01/17 01:58:04;;;;;;;11.07;6.05;;;21.20;27.00;;;;;;6105782;28;80394;-63
2021/01/17 02:01:06;;;;;;;13.45;5.80;;;21.20;26.90;;;;;;6103323;28;81629;-63
2021/01/17 02:04:06;;;;;;;8.85;4.75;;;21.20;26.90;;;;;;6103996;28;80923;-63
2021/01/17 02:07:07;;;;;;;11.98;5.28;;;21.20;26.90;;;;;;6098022;28;81438;-63
2021/01/17 02:10:07;;;;;;;9.38;4.93;;;21.20;26.90;;;;;;6101447;28;81394;-63
2021/01/17 02:13:08;;;;;;;11.38;5.38;;;21.20;26.90;;;;;;6100580;28;80701;-62
2021/01/17 02:16:08;;;;;;;10.40;5.15;;;21.20;26.80;;;;;;6100572;28;81599;-61
2021/01/17 02:19:09;;;;;;;9.98;4.80;;;21.20;26.80;;;;;;6103911;28;80767;-62
2021/01/17 02:22:09;;;;;;;10.65;4.60;;;21.20;26.70;;;;;;6103600;28;81436;-63
2021/01/17 02:25:10;;;;;;;6.25;4.03;;;21.20;26.70;;;;;;6103628;28;81173;-62
2021/01/17 02:28:10;;;;;;;9.05;4.30;;;21.20;26.60;;;;;;6096683;28;81053;-62
2021/01/17 02:31:11;;;;;;;9.10;4.53;;;21.20;26.70;;;;;;6104034;28;80163;-62
2021/01/17 02:34:11;;;;;;;9.90;4.80;;;21.20;26.60;;;;;;6076500;28;80353;-62
2021/01/17 02:37:12;;;;;;;10.40;4.85;;;21.20;26.60;;;;;;6103938;28;87681;-62
2021/01/17 02:40:12;;;;;;;9.70;4.82;;;21.20;26.60;;;;;;6093114;28;81419;-65
2021/01/17 02:43:13;;;;;;;7.38;4.63;;;21.20;26.50;;;;;;6102896;28;80562;-63
2021/01/17 02:46:14;;;;;;;10.43;4.72;;;21.20;26.60;;;;;;6103847;28;80753;-63
2021/01/17 02:49:14;;;;;;;8.23;4.30;;;21.10;26.60;;;;;;6103508;28;81161;-64
2021/01/17 02:52:15;;;;;;;7.68;4.90;;;21.10;26.50;;;;;;6103172;28;80552;-63
2021/01/17 02:55:15;;;;;;;11.15;4.80;;;21.10;26.60;;;;;;6102692;28;81052;-62
2021/01/17 02:58:16;;;;;;;8.70;4.90;;;21.10;26.50;;;;;;6093128;28;80854;-64
2021/01/17 03:01:16;;;;;;;8.00;4.75;;;21.10;26.40;;;;;;6100459;28;80695;-63
2021/01/17 03:04:17;;;;;;;8.35;5.05;;;21.10;26.50;;;;;;6102984;28;81444;-64
2021/01/17 03:07:17;;;;;;;8.32;4.70;;;21.10;26.70;;;;;;6101424;28;80528;-63
2021/01/17 03:10:18;;;;;;;8.35;4.55;;;21.10;26.40;;;;;;6074607;28;80986;-63
2021/01/17 03:13:18;;;;;;;8.85;5.30;;;21.10;26.40;;;;;;6096736;28;80776;-63
2021/01/17 03:16:19;;;;;;;9.10;5.10;;;21.10;26.40;;;;;;6103090;28;80667;-63
2021/01/17 03:19:19;;;;;;;9.48;5.15;;;21.10;26.50;;;;;;6104184;28;80647;-63
2021/01/17 03:22:20;;;;;;;10.85;5.50;;;21.00;26.20;;;;;;6102834;28;80569;-62
2021/01/17 03:25:20;;;;;;;9.93;4.93;;;21.00;26.30;;;;;;6102205;28;80883;-63
2021/01/17 03:28:21;;;;;;;7.45;4.00;;;21.00;26.30;;;;;;6097576;28;80741;-63
2021/01/17 03:31:21;;;;;;;9.15;4.50;;;21.00;26.10;;;;;;6100788;28;80702;-63
2021/01/17 03:34:22;;;;;;;9.30;5.35;;;21.00;26.30;;;;;;6102575;28;82789;-63
2021/01/17 03:37:22;;;;;;;9.15;5.65;;;21.00;26.20;;;;;;6099980;28;80958;-63
2021/01/17 03:40:23;;;;;;;8.25;4.88;;;21.00;26.30;;;;;;6102220;28;80634;-60
2021/01/17 03:43:24;;;;;;;8.38;5.07;;;21.00;26.00;;;;;;6084295;28;80673;-61
2021/01/17 03:46:27;;;;;;;6.82;4.65;;;21.00;26.00;;;;;;6101571;28;80683;-62
2021/01/17 03:49:28;;;;;;;9.50;4.80;;;20.90;26.10;;;;;;6089942;28;80502;-61
2021/01/17 03:52:28;;;;;;;7.50;4.60;;;20.90;26.00;;;;;;6104239;28;80818;-62
2021/01/17 03:55:29;;;;;;;6.38;4.13;;;20.90;26.00;;;;;;6107528;28;80706;-61
2021/01/17 03:58:29;;;;;;;10.98;4.97;;;20.90;26.10;;;;;;6082760;28;80601;-62
2021/01/17 04:01:30;;;;;;;8.02;4.93;;;20.90;26.00;;;;;;6105397;28;80771;-61
2021/01/17 04:04:30;;;;;;;9.50;5.00;;;20.90;26.00;;;;;;6086582;28;80954;-62
2021/01/17 04:07:31;;;;;;;8.98;4.72;;;20.90;25.90;;;;;;6102036;28;80735;-62
2021/01/17 04:10:31;;;;;;;8.27;5.15;;;20.90;26.00;;;;;;6103312;28;81581;-62
2021/01/17 04:13:32;;;;;;;8.00;4.65;;;20.90;25.80;;;;;;6094105;28;82544;-63
2021/01/17 04:16:32;;;;;;;8.85;4.90;;;20.90;25.70;;;;;;6104450;28;80335;-62
2021/01/17 04:19:33;;;;;;;9.07;4.60;;;20.90;25.90;;;;;;6102762;28;81056;-62
2021/01/17 04:22:33;;;;;;;8.30;4.40;;;20.90;25.60;;;;;;6104942;28;80911;-62
2021/01/17 04:25:34;;;;;;;9.27;4.50;;;20.90;25.60;;;;;;6120309;28;81567;-63
2021/01/17 04:28:34;;;;;;;5.90;4.00;;;20.90;25.50;;;;;;6093640;28;80492;-62
2021/01/17 04:31:35;;;;;;;7.32;4.32;;;20.90;25.50;;;;;;6106568;28;81625;-62
2021/01/17 04:34:35;;;;;;;7.80;4.75;;;20.90;25.50;;;;;;6107160;28;80475;-62
2021/01/17 04:37:36;;;;;;;8.27;4.10;;;20.90;25.40;;;;;;6098164;28;81524;-61
2021/01/17 04:40:36;;;;;;;9.20;4.65;;;20.80;25.50;;;;;;6100595;28;80578;-62
2021/01/17 04:43:37;;;;;;;9.00;4.45;;;20.80;25.40;;;;;;6105663;28;85326;-62
2021/01/17 04:46:38;;;;;;;7.38;4.10;;;20.80;25.50;;;;;;6082214;28;80735;-62
2021/01/17 04:49:38;;;;;;;7.45;4.10;;;20.80;25.70;;;;;;6104898;28;80394;-62
2021/01/17 04:52:39;;;;;;;8.57;4.55;;;20.80;26.30;;;;;;6080799;28;80228;-62
2021/01/17 04:55:39;;;;;;;7.82;4.75;;;20.90;25.60;;;;;;6102680;28;81742;-61
2021/01/17 04:58:40;;;;;;;7.72;4.28;;;20.90;25.50;;;;;;6102065;28;80585;-62
2021/01/17 05:01:40;;;;;;;8.25;4.20;;;21.00;25.00;;;;;;6099783;28;81329;-62
2021/01/17 05:04:41;;;;;;;8.90;4.63;;;21.10;24.70;;;;;;6099936;28;80732;-62
2021/01/17 05:07:41;;;;;;;8.55;4.80;;;21.20;24.60;;;;;;6072912;28;83194;-62
2021/01/17 05:10:42;;;;;;;9.10;4.60;;;21.20;24.40;;;;;;6095011;28;80413;-62
2021/01/17 05:13:42;;;;;;;8.15;4.72;;;21.20;24.40;;;;;;6073615;28;80449;-62
2021/01/17 05:16:43;;;;;;;8.95;4.82;;;21.30;24.30;;;;;;6105048;28;80529;-61
2021/01/17 05:19:43;;;;;;;10.15;5.00;;;21.30;24.10;;;;;;6101939;28;81227;-64
2021/01/17 05:22:44;;;;;;;8.15;5.07;;;21.40;24.20;;;;;;6105663;28;80926;-65
2021/01/17 05:25:44;;;;;;;8.55;5.20;;;21.40;23.90;;;;;;6102197;28;81576;-64
2021/01/17 05:28:45;;;;;;;9.20;5.05;;;21.40;24.20;;;;;;6098973;28;80856;-65
2021/01/17 05:31:45;;;;;;;8.63;5.03;;;21.40;24.20;;;;;;6105164;28;80919;-67
2021/01/17 05:34:46;;;;;;;16.25;5.80;;;21.50;24.40;;;;;;6078770;28;80122;-66
2021/01/17 05:37:47;;;;;;;9.20;5.93;;;21.60;24.40;;;;;;6093952;28;80385;-65
2021/01/17 05:40:47;;;;;;;11.65;5.45;;;21.60;24.70;;;;;;6099385;28;83784;-64
2021/01/17 05:43:48;;;;;;;11.00;5.75;;;21.60;24.90;;;;;;6097157;28;80428;-62
2021/01/17 05:46:48;;;;;;;12.52;5.60;;;21.60;24.90;;;;;;6100003;28;80691;-62
2021/01/17 05:49:49;;;;;;;11.23;5.57;;;21.80;25.30;;;;;;6100983;28;80140;-62
2021/01/17 05:52:49;;;;;;;9.05;4.93;;;21.80;25.30;;;;;;6087714;28;83453;-62
2021/01/17 05:55:50;;;;;;;11.95;4.80;;;21.90;25.70;;;;;;6103436;28;80757;-59
2021/01/17 05:58:50;;;;;;;12.30;6.18;;;21.90;25.90;;;;;;6104789;28;80950;-59
2021/01/17 06:01:51;;;;;;;9.60;5.07;;;21.90;26.10;;;;;;6100793;28;80459;-59
2021/01/17 06:04:51;;;;;;;12.40;5.68;;;22.00;25.90;;;;;;6102180;28;80973;-64
2021/01/17 06:07:52;;;;;;;10.20;5.55;;;22.00;25.80;;;;;;6093164;28;81045;-60
2021/01/17 06:10:52;;;;;;;11.40;5.82;;;21.90;25.70;;;;;;6104077;28;81953;-61
2021/01/17 06:13:53;;;;;;;9.45;6.07;;;21.80;26.70;;;;;;6103391;28;81762;-60
2021/01/17 06:16:53;;;;;;;12.98;6.15;;;21.70;27.30;;;;;;6094247;28;81167;-67
2021/01/17 06:19:54;;;;;;;10.15;6.15;;;21.60;27.70;;;;;;6102361;28;82286;-67
2021/01/17 06:22:55;;;;;;;12.23;6.45;;;21.50;28.20;;;;;;6103763;28;81574;-67
2021/01/17 06:25:55;;;;;;;13.05;6.55;;;21.40;28.60;;;;;;6095885;28;82885;-67
2021/01/17 06:28:56;;;;;;;11.70;7.15;;;21.40;28.80;;;;;;6097789;28;80823;-67
2021/01/17 06:31:56;;;;;;;12.45;6.10;;;21.30;28.90;;;;;;6096463;28;80513;-67
2021/01/17 06:34:57;;;;;;;67.60;34.10;;;21.40;29.60;;;;;;6104487;28;81517;-69
2021/01/17 06:37:57;;;;;;;314.40;157.02;;;21.40;30.10;;;;;;6101503;28;83315;-69
2021/01/17 06:40:58;;;;;;;309.35;161.00;;;21.40;30.20;;;;;;6091123;28;86870;-67
2021/01/17 06:43:58;;;;;;;279.65;142.68;;;21.30;30.50;;;;;;6094055;28;86282;-68
2021/01/17 06:46:59;;;;;;;255.70;136.20;;;21.40;30.80;;;;;;6089540;28;88273;-69
2021/01/17 06:49:59;;;;;;;236.93;120.82;;;21.40;31.00;;;;;;6095506;28;85776;-68
2021/01/17 06:53:00;;;;;;;213.88;113.95;;;21.40;30.90;;;;;;6089248;28;86001;-69
2021/01/17 06:56:01;;;;;;;197.18;104.30;;;21.40;31.00;;;;;;6089897;28;85997;-70
2021/01/17 06:59:01;;;;;;;176.80;93.97;;;21.50;31.00;;;;;;6095188;28;85610;-69
2021/01/17 07:02:02;;;;;;;163.93;85.75;;;21.50;31.40;;;;;;6090110;28;85683;-68
2021/01/17 07:05:02;;;;;;;150.30;81.93;;;21.60;31.60;;;;;;6092746;28;83491;-68
2021/01/17 07:08:03;;;;;;;139.98;74.28;;;21.60;31.80;;;;;;6095240;28;83880;-67
2021/01/17 07:11:04;;;;;;;135.65;71.55;;;21.70;31.80;;;;;;6099242;28;83507;-68
2021/01/17 07:14:04;;;;;;;118.47;66.07;;;21.70;31.60;;;;;;6096597;28;83230;-67
2021/01/17 07:17:05;;;;;;;119.25;65.15;;;21.70;31.70;;;;;;6100502;28;83264;-72
2021/01/17 07:20:05;;;;;;;112.65;59.75;;;21.70;31.80;;;;;;6099697;28;83445;-71
2021/01/17 07:23:06;;;;;;;99.32;54.58;;;21.70;31.50;;;;;;6093173;28;83981;-71
2021/01/17 07:26:06;;;;;;;95.97;49.65;;;21.70;31.00;;;;;;6096526;28;84168;-67
2021/01/17 07:29:07;;;;;;;84.63;45.00;;;21.70;31.00;;;;;;6086416;28;83258;-67
2021/01/17 07:32:07;;;;;;;80.28;42.30;;;21.70;31.00;;;;;;6100553;28;86408;-69
2021/01/17 07:35:08;;;;;;;73.57;38.47;;;21.70;31.00;;;;;;6089574;28;83372;-68
2021/01/17 07:38:09;;;;;;;67.75;35.95;;;21.80;31.10;;;;;;6092892;28;83434;-70
2021/01/17 07:41:09;;;;;;;65.22;34.55;;;21.80;31.00;;;;;;6099132;28;83945;-68
2021/01/17 07:44:10;;;;;;;60.92;31.05;;;21.80;30.90;;;;;;6096013;28;84102;-70
2021/01/17 07:47:10;;;;;;;52.83;27.92;;;21.80;30.70;;;;;;6095742;28;83614;-70
2021/01/17 07:50:11;;;;;;;44.35;25.10;;;21.70;30.60;;;;;;6097351;28;83216;-69
2021/01/17 07:53:12;;;;;;;54.25;27.02;;;21.70;30.80;;;;;;6089854;28;83206;-69
2021/01/17 07:56:12;;;;;;;44.13;23.85;;;21.70;30.60;;;;;;6083972;28;85016;-71
2021/01/17 07:59:13;;;;;;;41.20;22.15;;;21.70;30.60;;;;;;6095962;28;83002;-72
2021/01/17 08:02:14;;;;;;;44.50;23.98;;;21.70;30.50;;;;;;6083230;28;87160;-70
2021/01/17 08:05:14;;;;;;;43.67;22.42;;;21.70;30.40;;;;;;6090204;28;83800;-69
2021/01/17 08:08:15;;;;;;;43.28;22.13;;;21.70;30.30;;;;;;6111100;28;83726;-70
2021/01/17 08:11:16;;;;;;;39.50;20.60;;;21.70;30.40;;;;;;6098937;28;83573;-74
2021/01/17 08:14:17;;;;;;;38.92;19.83;;;21.70;31.00;;;;;;6084542;28;83460;-68
2021/01/17 08:17:17;;;;;;;32.90;18.88;;;21.70;31.00;;;;;;6091733;28;84522;-67
2021/01/17 08:20:18;;;;;;;32.58;18.55;;;21.70;31.30;;;;;;6090818;28;83406;-71
2021/01/17 08:23:18;;;;;;;34.13;17.17;;;21.70;31.30;;;;;;6092568;28;83468;-73
2021/01/17 08:26:19;;;;;;;33.15;16.30;;;21.70;30.90;;;;;;6091305;28;85739;-71
2021/01/17 08:29:19;;;;;;;35.08;14.88;;;21.70;30.20;;;;;;6095536;28;84351;-62
2021/01/17 08:32:20;;;;;;;32.10;16.83;;;21.70;29.60;;;;;;6085425;28;85947;-66
2021/01/17 08:35:21;;;;;;;27.42;16.10;;;21.70;29.50;;;;;;6101321;28;83655;-67
2021/01/17 08:38:22;;;;;;;30.95;15.27;;;21.80;29.20;;;;;;6092014;28;83450;-68
2021/01/17 08:41:22;;;;;;;27.73;15.60;;;21.90;28.50;;;;;;6101911;28;83366;-71
2021/01/17 08:44:23;;;;;;;28.02;14.75;;;22.00;28.00;;;;;;6092094;28;84216;-67
2021/01/17 08:47:23;;;;;;;34.58;15.32;;;22.10;28.60;;;;;;6067274;28;86355;-72
2021/01/17 08:50:24;;;;;;;26.60;15.55;;;22.20;28.20;;;;;;6091904;28;84178;-67
2021/01/17 08:53:24;;;;;;;27.60;16.05;;;22.20;28.00;;;;;;6099014;28;86357;-69
2021/01/17 08:56:25;;;;;;;27.92;16.73;;;22.30;28.10;;;;;;6086481;28;82978;-73
2021/01/17 08:59:25;;;;;;;24.92;14.57;;;22.30;28.30;;;;;;6100644;28;87659;-68
2021/01/17 09:02:26;;;;;;;23.33;13.20;;;22.40;27.70;;;;;;6093204;28;83004;-65
2021/01/17 09:05:27;;;;;;;32.00;14.80;;;22.40;27.30;;;;;;6094032;28;85796;-68
2021/01/17 09:08:27;;;;;;;23.42;13.73;;;22.40;27.50;;;;;;6083562;28;83098;-67
2021/01/17 09:11:28;;;;;;;21.15;12.15;;;22.40;27.80;;;;;;6061235;28;83597;-70
2021/01/17 09:14:28;;;;;;;24.70;13.15;;;22.40;27.40;;;;;;6089213;28;83155;-71
2021/01/17 09:17:29;;;;;;;22.40;12.88;;;22.40;27.20;;;;;;6098038;28;85054;-73
2021/01/17 09:20:29;;;;;;;23.85;12.38;;;22.40;27.00;;;;;;6095862;28;83314;-65
2021/01/17 09:23:30;;;;;;;19.85;12.10;;;22.30;27.30;;;;;;6098554;28;89801;-67
2021/01/17 09:26:31;;;;;;;28.17;11.43;;;22.30;27.30;;;;;;6099860;28;86676;-67
2021/01/17 09:29:31;;;;;;;18.55;11.05;;;22.30;27.90;;;;;;6099273;28;84204;-69
2021/01/17 09:32:32;;;;;;;26.55;11.95;;;22.30;28.00;;;;;;6095771;28;83540;-67
2021/01/17 09:35:32;;;;;;;21.85;12.07;;;22.30;28.00;;;;;;6100949;28;83735;-67
2021/01/17 09:38:33;;;;;;;25.83;11.23;;;22.20;27.80;;;;;;6102682;28;84063;-66
2021/01/17 09:41:33;;;;;;;17.60;11.05;;;22.20;27.50;;;;;;6098444;28;83678;-67
2021/01/17 09:44:34;;;;;;;18.70;9.93;;;22.30;27.20;;;;;;6099708;28;86747;-66
2021/01/17 09:47:35;;;;;;;17.83;10.63;;;22.30;27.40;;;;;;6102174;28;83928;-66
2021/01/17 09:50:35;;;;;;;22.38;11.13;;;22.20;27.10;;;;;;6100359;28;83480;-68
2021/01/17 09:53:36;;;;;;;20.83;11.30;;;22.30;27.40;;;;;;6099516;28;83502;-67
2021/01/17 09:56:36;;;;;;;19.83;11.20;;;22.40;26.60;;;;;;6096011;28;84278;-67
2021/01/17 09:59:37;;;;;;;21.95;12.50;;;22.50;26.00;;;;;;6092862;28;84448;-66
2021/01/17 10:02:37;;;;;;;23.88;12.82;;;22.60;25.90;;;;;;6096105;28;83254;-63
2021/01/17 10:05:38;;;;;;;25.77;13.15;;;22.70;25.30;;;;;;6096639;28;84117;-63
2021/01/17 10:08:39;;;;;;;22.05;12.98;;;22.80;25.00;;;;;;6097769;28;83006;-64
2021/01/17 10:11:40;;;;;;;21.02;12.45;;;22.90;24.90;;;;;;6099163;28;84210;-65
2021/01/17 10:14:40;;;;;;;25.40;12.77;;;22.90;24.80;;;;;;6099744;28;83208;-67
2021/01/17 10:17:41;;;;;;;22.30;12.68;;;23.00;25.30;;;;;;6101148;28;84044;-66
2021/01/17 10:20:42;;;;;;;23.63;13.32;;;23.10;26.00;;;;;;6096492;28;84320;-67
2021/01/17 10:23:42;;;;;;;25.95;13.77;;;23.10;26.00;;;;;;6097635;28;83036;-66
2021/01/17 10:26:43;;;;;;;28.98;16.17;;;23.10;25.80;;;;;;6089819;28;84064;-64
2021/01/17 10:29:43;;;;;;;30.60;16.55;;;23.10;25.30;;;;;;6092219;28;83823;-65
2021/01/17 10:32:44;;;;;;;28.73;16.77;;;23.00;24.80;;;;;;6101195;28;88496;-66
2021/01/17 10:35:45;;;;;;;27.10;15.27;;;22.90;24.10;;;;;;6100043;28;83769;-65
2021/01/17 10:38:45;;;;;;;26.38;13.98;;;22.90;23.90;;;;;;6074783;28;83271;-72
2021/01/17 10:41:46;;;;;;;26.23;14.80;;;23.00;24.00;;;;;;6091365;28;83723;-67
2021/01/17 10:44:46;;;;;;;29.52;13.75;;;23.00;24.40;;;;;;6096763;28;83350;-70
2021/01/17 10:47:47;;;;;;;26.83;15.15;;;23.00;26.50;;;;;;6086387;28;83397;-67
2021/01/17 10:50:48;;;;;;;26.83;13.65;;;23.00;26.50;;;;;;6101469;28;84148;-67
2021/01/17 10:53:49;;;;;;;27.25;14.38;;;23.10;28.50;;;;;;6089710;28;83450;-66
2021/01/17 10:56:49;;;;;;;27.00;14.38;;;23.00;27.60;;;;;;6087764;28;82978;-66
2021/01/17 10:59:50;;;;;;;23.85;12.85;;;23.00;29.70;;;;;;6100506;28;83551;-66
2021/01/17 11:02:50;;;;;;;21.83;12.05;;;23.00;30.40;;;;;;6094776;28;83608;-67
2021/01/17 11:05:51;;;;;;;23.30;12.32;;;23.00;32.00;;;;;;6096797;28;85711;-67
2021/01/17 11:08:54;;;;;;;25.20;12.82;;;23.00;31.10;;;;;;6097493;28;83783;-67
2021/01/17 11:11:55;;;;;;;21.10;11.70;;;23.00;31.20;;;;;;6095184;28;83827;-68
2021/01/17 11:14:56;;;;;;;26.35;13.00;;;23.00;30.30;;;;;;6097108;28;83328;-67
2021/01/17 11:17:56;;;;;;;23.67;12.40;;;23.00;30.40;;;;;;6099976;28;83373;-68
2021/01/17 11:20:57;;;;;;;22.65;11.75;;;23.00;30.00;;;;;;6098498;28;83495;-66
2021/01/17 11:23:57;;;;;;;28.55;12.60;;;23.10;29.80;;;;;;6075013;28;83314;-67
2021/01/17 11:26:58;;;;;;;20.63;11.52;;;23.10;29.50;;;;;;6098206;28;83988;-67
2021/01/17 11:29:58;;;;;;;22.55;12.63;;;23.10;29.20;;;;;;6115986;28;83018;-68
2021/01/17 11:32:59;;;;;;;22.15;12.57;;;23.10;29.00;;;;;;6097741;28;83796;-67
2021/01/17 11:36:00;;;;;;;21.35;11.70;;;23.10;28.90;;;;;;6084017;28;83431;-68
2021/01/17 11:39:00;;;;;;;24.70;12.43;;;23.10;29.30;;;;;;6097682;28;83975;-68
2021/01/17 11:42:01;;;;;;;25.13;13.30;;;23.10;28.60;;;;;;6072380;28;83201;-68
2021/01/17 11:45:02;;;;;;;23.80;12.50;;;23.10;28.50;;;;;;6084039;28;83122;-66
2021/01/17 11:48:02;;;;;;;29.10;13.35;;;23.10;28.50;;;;;;6073787;28;83797;-67
2021/01/17 11:51:03;;;;;;;21.13;12.30;;;23.00;28.50;;;;;;6099638;28;83406;-73
2021/01/17 11:54:03;;;;;;;26.15;12.77;;;23.00;28.20;;;;;;6098306;28;83181;-69
2021/01/17 11:57:04;;;;;;;27.63;12.60;;;22.90;28.40;;;;;;6097857;28;83362;-67
2021/01/17 12:00:05;;;;;;;22.55;12.70;;;22.90;28.80;;;;;;6099800;28;90459;-66
2021/01/17 12:03:05;;;;;;;29.08;14.05;;;22.80;28.40;;;;;;6096831;28;83385;-66
2021/01/17 12:06:06;;;;;;;23.88;13.18;;;22.80;28.30;;;;;;6093499;28;83603;-67
2021/01/17 12:09:06;;;;;;;23.02;13.43;;;22.80;28.30;;;;;;6088153;28;83151;-65
2021/01/17 12:12:07;;;;;;;24.48;13.10;;;22.80;28.10;;;;;;6094647;28;83054;-67
2021/01/17 12:15:08;;;;;;;24.65;13.88;;;22.70;27.90;;;;;;6088296;28;83535;-65
2021/01/17 12:18:08;;;;;;;26.98;13.77;;;22.70;27.80;;;;;;6099081;28;85042;-66
2021/01/17 12:21:09;;;;;;;22.92;12.82;;;22.70;28.30;;;;;;6100715;28;83046;-67
2021/01/17 12:24:09;;;;;;;25.83;13.02;;;22.70;28.30;;;;;;6085950;28;85335;-65
2021/01/17 12:27:10;;;;;;;26.90;13.88;;;22.70;28.30;;;;;;6101224;28;83538;-71
2021/01/17 12:30:10;;;;;;;30.88;13.05;;;22.70;28.20;;;;;;6102149;28;83027;-66
2021/01/17 12:33:11;;;;;;;28.83;14.32;;;22.60;27.70;;;;;;6096511;28;84023;-65
2021/01/17 12:36:12;;;;;;;26.15;14.10;;;22.50;27.70;;;;;;6091404;28;83299;-65
2021/01/17 12:39:12;;;;;;;28.55;14.93;;;22.50;27.50;;;;;;6102047;28;83637;-69
2021/01/17 12:42:13;;;;;;;27.13;13.95;;;22.40;27.70;;;;;;6095999;28;83627;-67
2021/01/17 12:45:13;;;;;;;24.58;14.02;;;22.40;27.80;;;;;;6101569;28;83286;-67
2021/01/17 12:48:14;;;;;;;32.80;14.45;;;22.50;27.70;;;;;;6100950;28;82964;-68
2021/01/17 12:51:14;;;;;;;28.20;14.00;;;22.50;28.00;;;;;;6116105;28;84299;-67
2021/01/17 12:54:15;;;;;;;32.35;14.77;;;22.50;28.00;;;;;;6071880;28;82961;-67
2021/01/17 12:57:16;;;;;;;26.45;13.75;;;22.60;28.10;;;;;;6102496;28;83390;-67
2021/01/17 13:00:16;;;;;;;24.23;13.30;;;22.70;28.50;;;;;;6094427;28;83169;-66
2021/01/17 13:03:17;;;;;;;24.20;14.15;;;22.70;27.70;;;;;;6110043;28;83368;-67
2021/01/17 13:06:17;;;;;;;25.23;13.02;;;22.80;27.30;;;;;;6100457;28;83823;-67
2021/01/17 13:09:18;;;;;;;22.77;13.27;;;22.80;27.00;;;;;;6099378;28;83687;-67
2021/01/17 13:12:26;;;;;;;28.25;14.32;;;22.90;26.70;;;;;;6113406;28;83426;-68
2021/01/17 13:15:26;;;;;;;24.33;13.85;;;22.90;26.50;;;;;;6093605;28;83531;-66
2021/01/17 13:18:27;;;;;;;25.58;13.70;;;22.90;26.10;;;;;;6108008;28;84355;-67
2021/01/17 13:21:28;;;;;;;25.05;14.18;;;23.00;25.90;;;;;;6101019;28;82908;-67
2021/01/17 13:24:28;;;;;;;24.13;13.57;;;23.00;25.80;;;;;;6100273;28;84731;-66
2021/01/17 13:27:29;;;;;;;24.40;12.93;;;23.00;25.60;;;;;;6087885;28;83493;-67
2021/01/17 13:30:29;;;;;;;25.67;13.80;;;23.00;25.50;;;;;;6091604;28;85665;-67
2021/01/17 13:33:30;;;;;;;22.67;13.75;;;23.00;25.40;;;;;;6100579;28;83890;-67
2021/01/17 13:36:31;;;;;;;23.60;14.43;;;23.00;25.30;;;;;;6100999;28;83654;-66
2021/01/17 13:39:31;;;;;;;25.15;14.13;;;23.00;25.00;;;;;;6099751;28;83098;-66
2021/01/17 13:42:32;;;;;;;24.17;13.75;;;23.00;25.00;;;;;;6065656;28;84592;-67
2021/01/17 13:45:32;;;;;;;23.10;13.90;;;23.00;25.00;;;;;;6106676;28;83265;-67
2021/01/17 13:48:34;;;;;;;22.50;12.18;;;23.00;25.00;;;;;;6099594;28;83419;-68
2021/01/17 13:51:35;;;;;;;26.67;14.80;;;23.00;25.30;;;;;;6107840;28;86100;-66
2021/01/17 13:54:36;;;;;;;22.90;13.48;;;23.00;25.00;;;;;;6101504;28;90213;-67
2021/01/17 13:57:36;;;;;;;22.95;13.27;;;23.00;24.90;;;;;;6100744;28;83552;-66
2021/01/17 14:00:37;;;;;;;22.42;13.15;;;22.90;24.90;;;;;;6099040;28;82912;-66
2021/01/17 14:03:37;;;;;;;23.38;13.18;;;23.00;25.00;;;;;;6101201;28;83844;-67
2021/01/17 14:06:38;;;;;;;23.45;12.63;;;22.90;24.80;;;;;;6076368;28;85652;-67
2021/01/17 14:09:39;;;;;;;24.35;13.25;;;22.90;24.90;;;;;;6074246;28;83999;-68
2021/01/17 14:12:39;;;;;;;24.33;13.07;;;23.00;25.00;;;;;;6068033;28;84170;-67
2021/01/17 14:15:40;;;;;;;26.77;13.95;;;22.90;24.80;;;;;;6073998;28;87214;-66
2021/01/17 14:18:40;;;;;;;22.20;13.00;;;22.90;24.70;;;;;;6057883;28;84617;-66
2021/01/17 14:21:41;;;;;;;25.60;12.98;;;22.90;24.60;;;;;;6075779;28;83624;-67
2021/01/17 14:24:41;;;;;;;20.35;12.35;;;22.90;24.70;;;;;;6074157;28;84054;-67
2021/01/17 14:27:42;;;;;;;21.00;12.32;;;22.90;24.50;;;;;;6076421;28;83884;-64
2021/01/17 14:30:43;;;;;;;23.02;12.98;;;22.90;24.50;;;;;;6069867;28;83334;-68
2021/01/17 14:33:43;;;;;;;24.42;13.90;;;22.90;24.40;;;;;;6075513;28;83205;-66
2021/01/17 14:36:44;;;;;;;24.90;14.60;;;22.90;24.60;;;;;;6076090;28;85121;-66
2021/01/17 14:39:44;;;;;;;24.02;14.23;;;22.90;24.40;;;;;;6075520;28;82931;-65
2021/01/17 14:42:45;;;;;;;27.92;14.65;;;22.90;24.10;;;;;;6069582;28;85665;-64
2021/01/17 14:45:45;;;;;;;25.10;14.73;;;22.90;24.40;;;;;;6075182;28;83406;-63
2021/01/17 14:48:46;;;;;;;25.33;15.45;;;22.90;24.40;;;;;;6076202;28;84676;-64
2021/01/17 14:51:46;;;;;;;23.88;15.07;;;22.90;24.70;;;;;;6073521;28;83861;-65
2021/01/17 14:54:47;;;;;;;23.65;13.30;;;22.90;24.80;;;;;;6069689;28;83955;-68
2021/01/17 14:57:48;;;;;;;25.55;14.48;;;22.90;25.40;;;;;;6073966;28;84388;-67
2021/01/17 15:00:49;;;;;;;42.72;16.20;;;22.90;24.90;;;;;;6055653;28;84335;-65
2021/01/17 15:03:49;;;;;;;26.92;15.10;;;22.90;25.30;;;;;;6075464;28;84308;-65
2021/01/17 15:06:50;;;;;;;26.38;14.68;;;22.90;25.30;;;;;;6096885;28;84120;-68
2021/01/17 15:09:51;;;;;;;27.00;14.57;;;22.90;25.20;;;;;;6095510;28;84362;-64
2021/01/17 15:12:51;;;;;;;27.55;14.82;;;22.90;25.20;;;;;;6097113;28;84298;-67
2021/01/17 15:15:52;;;;;;;27.45;15.75;;;22.90;25.10;;;;;;6098750;28;86104;-66
2021/01/17 15:18:52;;;;;;;26.65;15.85;;;22.80;25.20;;;;;;6098950;28;83614;-65
2021/01/17 15:21:53;;;;;;;24.58;13.93;;;22.80;25.10;;;;;;6096524;28;83196;-66